Time;durP1;ratioP1;P1;durP2;ratioP2;P2;SDS_P1;SDS_P2;PMS_P1;PMS_P2;Temp;Humidity;BMP_temperature;BMP_pressure;BME280_temperature;BME280_humidity;BME280_pressure;Samples;Min_cycle;Max_cycle;Signal;HPM_P1;HPM_P2
2023/03/16 00:02:24;;;;;;;2.25;2.15;;;4.90;84.10;;;;;;5104373;28;20260;-73
2023/03/16 00:04:51;;;;;;;2.38;2.28;;;4.90;83.70;;;;;;5104492;28;20293;-73
2023/03/16 00:07:18;;;;;;;2.25;2.15;;;4.90;83.90;;;;;;5103925;28;20300;-74
2023/03/16 00:09:45;;;;;;;2.60;2.50;;;4.90;84.30;;;;;;5102287;28;20266;-74
2023/03/16 00:12:15;;;;;;;2.70;2.60;;;4.90;85.10;;;;;;5103907;28;20194;-73
2023/03/16 00:14:43;;;;;;;2.55;2.45;;;4.90;85.30;;;;;;5103609;28;20284;-73
2023/03/16 00:17:17;;;;;;;2.22;2.13;;;4.90;85.70;;;;;;5103932;28;20702;-74
2023/03/16 00:19:46;;;;;;;2.80;2.60;;;4.90;85.00;;;;;;5103603;28;20197;-73
2023/03/16 00:22:14;;;;;;;1.95;1.85;;;4.90;85.40;;;;;;5105134;28;20292;-74
2023/03/16 00:24:43;;;;;;;2.45;2.25;;;4.90;85.90;;;;;;5107555;28;20197;-74
2023/03/16 00:27:13;;;;;;;2.67;2.58;;;4.90;86.20;;;;;;5110936;28;20746;-73
2023/03/16 00:29:45;;;;;;;2.30;2.20;;;4.90;85.70;;;;;;5103584;28;20316;-75
2023/03/16 00:32:18;;;;;;;2.58;2.40;;;4.80;85.60;;;;;;5102936;28;20193;-74
2023/03/16 00:34:46;;;;;;;2.42;2.33;;;4.90;85.70;;;;;;5101827;28;20196;-74
2023/03/16 00:37:15;;;;;;;2.60;2.50;;;4.80;86.00;;;;;;5100473;28;20876;-73
2023/03/16 00:39:43;;;;;;;2.60;2.50;;;4.80;86.40;;;;;;5103316;28;20284;-74
2023/03/16 00:42:11;;;;;;;2.50;2.40;;;4.70;86.30;;;;;;5099121;28;20837;-74
2023/03/16 00:44:40;;;;;;;2.53;2.42;;;4.70;86.40;;;;;;5102082;28;20255;-73
2023/03/16 00:47:08;;;;;;;2.55;2.45;;;4.60;86.50;;;;;;5103738;28;20235;-74
2023/03/16 00:49:36;;;;;;;2.53;2.42;;;4.60;86.90;;;;;;5104960;28;20244;-73
2023/03/16 00:52:04;;;;;;;2.70;2.60;;;4.60;87.20;;;;;;5104787;28;20649;-74
2023/03/16 00:54:32;;;;;;;1.98;1.95;;;4.50;87.30;;;;;;5101418;28;20224;-74
2023/03/16 00:56:59;;;;;;;3.45;3.25;;;4.50;87.10;;;;;;5101801;28;20589;-73
2023/03/16 00:59:27;;;;;;;2.10;2.00;;;4.50;87.50;;;;;;5106149;28;20682;-74
2023/03/16 01:01:55;;;;;;;2.20;2.10;;;4.60;88.30;;;;;;5107441;28;20800;-73
2023/03/16 01:04:22;;;;;;;2.47;2.38;;;4.60;89.00;;;;;;5105260;28;20229;-73
2023/03/16 01:06:51;;;;;;;2.47;2.38;;;4.60;89.00;;;;;;5102356;28;20217;-74
2023/03/16 01:09:18;;;;;;;2.45;2.35;;;4.60;88.30;;;;;;5098522;28;20232;-73
2023/03/16 01:11:46;;;;;;;2.25;2.15;;;4.60;88.70;;;;;;5101152;28;20647;-74
2023/03/16 01:14:13;;;;;;;2.67;2.58;;;4.60;88.70;;;;;;5103892;28;20290;-74
2023/03/16 01:16:44;;;;;;;2.20;2.10;;;4.50;89.10;;;;;;5101044;28;20220;-73
2023/03/16 01:19:12;;;;;;;2.47;2.38;;;4.50;89.30;;;;;;5103699;28;20196;-74
2023/03/16 01:21:39;;;;;;;2.15;2.05;;;4.50;88.80;;;;;;5103375;28;20208;-74
2023/03/16 01:24:08;;;;;;;2.00;1.90;;;4.50;89.10;;;;;;5120299;28;20209;-73
2023/03/16 01:26:36;;;;;;;2.63;2.53;;;4.40;89.20;;;;;;5101947;28;20205;-72
2023/03/16 01:29:03;;;;;;;3.40;3.20;;;4.40;88.70;;;;;;5102509;28;20289;-74
2023/03/16 01:31:30;;;;;;;2.47;2.38;;;4.30;88.50;;;;;;5103012;28;20229;-73
2023/03/16 01:33:57;;;;;;;2.25;2.15;;;4.30;89.00;;;;;;5101163;28;20222;-73
2023/03/16 01:36:24;;;;;;;2.40;2.30;;;4.30;89.20;;;;;;5101400;28;20296;-73
2023/03/16 01:38:51;;;;;;;2.47;2.38;;;4.30;90.00;;;;;;5101836;28;20232;-73
2023/03/16 01:41:20;;;;;;;2.63;2.53;;;4.30;90.10;;;;;;5103323;28;20250;-73
2023/03/16 01:43:47;;;;;;;2.50;2.40;;;4.20;90.10;;;;;;5101594;28;20296;-73
2023/03/16 01:46:20;;;;;;;2.45;2.35;;;4.20;90.20;;;;;;5103202;28;20788;-73
2023/03/16 01:49:00;;;;;;;2.65;2.55;;;4.20;90.30;;;;;;5100262;28;20279;-74
2023/03/16 01:51:31;;;;;;;2.60;2.50;;;4.20;90.50;;;;;;5103999;28;20228;-73
2023/03/16 01:54:03;;;;;;;2.22;2.13;;;4.10;90.50;;;;;;5102634;28;20614;-73
2023/03/16 01:56:36;;;;;;;2.50;2.40;;;4.20;90.50;;;;;;5106861;28;20231;-73
2023/03/16 01:59:09;;;;;;;2.75;2.65;;;4.20;90.50;;;;;;5107075;28;20224;-73
2023/03/16 02:01:36;;;;;;;2.65;2.55;;;4.10;90.90;;;;;;5103411;28;20792;-72
2023/03/16 02:04:13;;;;;;;2.35;2.25;;;4.10;91.10;;;;;;5104158;28;20241;-73
2023/03/16 02:06:40;;;;;;;2.53;2.42;;;4.00;91.20;;;;;;5105052;28;20220;-73
2023/03/16 02:09:08;;;;;;;2.85;2.75;;;4.00;91.10;;;;;;5102732;28;20205;-74
2023/03/16 02:11:37;;;;;;;2.33;2.22;;;4.00;91.10;;;;;;5103029;28;20288;-75
2023/03/16 02:14:09;;;;;;;2.70;2.50;;;3.90;91.30;;;;;;5100104;28;20284;-73
2023/03/16 02:16:36;;;;;;;2.65;2.55;;;3.90;91.20;;;;;;5094209;28;20236;-73
2023/03/16 02:19:07;;;;;;;2.70;2.60;;;3.80;91.10;;;;;;5097565;28;20288;-73
2023/03/16 02:21:40;;;;;;;2.40;2.30;;;3.90;91.40;;;;;;5110516;28;20189;-74
2023/03/16 02:24:07;;;;;;;2.33;2.22;;;3.80;91.50;;;;;;5103251;28;20201;-73
2023/03/16 02:26:43;;;;;;;2.25;2.15;;;3.80;91.70;;;;;;5098898;28;20578;-74
2023/03/16 02:29:19;;;;;;;2.60;2.50;;;3.80;91.70;;;;;;5095686;28;20197;-74
2023/03/16 02:31:47;;;;;;;2.47;2.38;;;3.70;91.70;;;;;;5099588;28;20580;-74
2023/03/16 02:34:16;;;;;;;2.40;2.30;;;3.70;91.60;;;;;;5098269;28;20269;-74
2023/03/16 02:36:46;;;;;;;2.90;2.80;;;3.70;91.20;;;;;;5101861;28;20221;-74
2023/03/16 02:39:13;;;;;;;2.70;2.60;;;3.70;91.40;;;;;;5100656;28;20728;-74
2023/03/16 02:41:40;;;;;;;3.20;3.00;;;3.70;91.90;;;;;;5101632;28;20197;-74
2023/03/16 02:44:14;;;;;;;2.72;2.63;;;3.70;92.10;;;;;;5096000;28;20289;-73
2023/03/16 02:46:43;;;;;;;2.40;2.30;;;3.60;92.30;;;;;;5101608;28;20701;-74
2023/03/16 02:49:17;;;;;;;2.75;2.65;;;3.60;92.30;;;;;;5100202;28;20262;-73
2023/03/16 02:51:45;;;;;;;2.63;2.53;;;3.60;92.40;;;;;;5099112;28;20334;-72
2023/03/16 02:54:12;;;;;;;2.58;2.47;;;3.50;92.60;;;;;;5098896;28;20237;-74
2023/03/16 02:56:39;;;;;;;2.80;2.70;;;3.50;92.60;;;;;;5098417;28;20286;-73
2023/03/16 02:59:06;;;;;;;2.20;2.10;;;3.50;92.90;;;;;;5098689;28;20398;-73
2023/03/16 03:01:35;;;;;;;2.55;2.45;;;3.50;93.10;;;;;;5097836;28;20256;-73
2023/03/16 03:04:02;;;;;;;2.78;2.60;;;3.50;92.90;;;;;;5096481;28;20289;-74
2023/03/16 03:06:32;;;;;;;2.63;2.53;;;3.50;93.00;;;;;;5098818;28;20716;-74
2023/03/16 03:09:00;;;;;;;2.53;2.42;;;3.50;93.00;;;;;;5096620;28;20207;-73
2023/03/16 03:11:28;;;;;;;2.45;2.35;;;3.50;92.30;;;;;;5098955;28;20214;-74
2023/03/16 03:13:55;;;;;;;2.60;2.50;;;3.50;92.40;;;;;;5097385;28;20750;-73
2023/03/16 03:16:22;;;;;;;2.33;2.22;;;3.50;93.00;;;;;;5099900;28;20200;-73
2023/03/16 03:18:51;;;;;;;2.63;2.47;;;3.50;93.30;;;;;;5099184;28;20212;-73
2023/03/16 03:21:18;;;;;;;2.67;2.58;;;3.50;93.40;;;;;;5117240;28;21480;-74
2023/03/16 03:23:47;;;;;;;2.58;2.47;;;3.50;93.70;;;;;;5100167;28;20232;-74
2023/03/16 03:26:15;;;;;;;2.70;2.60;;;3.40;93.70;;;;;;5099750;28;20216;-73
2023/03/16 03:28:42;;;;;;;2.50;2.40;;;3.40;93.90;;;;;;5099838;27;20305;-73
2023/03/16 03:31:14;;;;;;;2.60;2.50;;;3.40;93.80;;;;;;5102890;28;20714;-73
2023/03/16 03:33:41;;;;;;;2.60;2.50;;;3.40;93.70;;;;;;5102885;28;20765;-75
2023/03/16 03:36:08;;;;;;;2.63;2.53;;;3.40;93.80;;;;;;5107780;28;20293;-73
2023/03/16 03:38:36;;;;;;;2.70;2.60;;;3.40;93.40;;;;;;5106634;28;20244;-73
2023/03/16 03:41:06;;;;;;;2.88;2.78;;;3.30;93.10;;;;;;5109612;28;20200;-73
2023/03/16 03:43:33;;;;;;;2.90;2.80;;;3.20;93.00;;;;;;5101046;28;20288;-73
2023/03/16 03:46:01;;;;;;;2.70;2.60;;;3.20;93.20;;;;;;5100378;28;20573;-73
2023/03/16 03:48:28;;;;;;;2.88;2.78;;;3.20;93.40;;;;;;5103620;28;20253;-74
2023/03/16 03:50:55;;;;;;;3.17;2.97;;;3.20;93.80;;;;;;5101495;27;20334;-73
2023/03/16 03:53:22;;;;;;;2.95;2.85;;;3.20;94.10;;;;;;5103665;28;20737;-74
2023/03/16 03:55:49;;;;;;;2.80;2.70;;;3.20;94.20;;;;;;5103242;28;20739;-74
2023/03/16 03:58:17;;;;;;;2.53;2.42;;;3.20;94.20;;;;;;5103638;28;20220;-74
2023/03/16 04:00:44;;;;;;;2.72;2.63;;;3.20;94.70;;;;;;5101302;28;20193;-74
2023/03/16 04:03:11;;;;;;;2.85;2.75;;;3.20;94.70;;;;;;5101686;28;20198;-74
2023/03/16 04:05:38;;;;;;;2.78;2.67;;;3.20;94.90;;;;;;5102087;28;20222;-73
2023/03/16 04:08:06;;;;;;;2.75;2.65;;;3.20;94.80;;;;;;5103781;28;20998;-74
2023/03/16 04:10:33;;;;;;;2.67;2.58;;;3.20;94.70;;;;;;5103462;28;20658;-73
2023/03/16 04:13:00;;;;;;;2.95;2.85;;;3.20;94.60;;;;;;5106150;28;20308;-75
2023/03/16 04:15:28;;;;;;;3.00;2.90;;;3.10;94.30;;;;;;5101721;28;20228;-73
2023/03/16 04:17:55;;;;;;;2.95;2.85;;;3.10;94.50;;;;;;5108436;28;20744;-75
2023/03/16 04:20:22;;;;;;;3.13;3.03;;;3.10;94.30;;;;;;5118858;28;20263;-74
2023/03/16 04:22:57;;;;;;;3.03;2.88;;;3.10;94.60;;;;;;5102974;28;20193;-74
2023/03/16 04:25:26;;;;;;;3.03;2.92;;;3.00;94.70;;;;;;5104065;28;20689;-74
2023/03/16 04:27:53;;;;;;;2.80;2.70;;;3.00;94.90;;;;;;5103839;28;20266;-74
2023/03/16 04:30:22;;;;;;;3.17;2.97;;;3.00;94.90;;;;;;5106853;27;20252;-74
2023/03/16 04:32:51;;;;;;;2.80;2.70;;;3.00;95.10;;;;;;5102445;28;20287;-74
2023/03/16 04:35:19;;;;;;;2.90;2.80;;;3.00;95.20;;;;;;5102756;28;20688;-75
2023/03/16 04:37:45;;;;;;;2.67;2.58;;;3.00;95.20;;;;;;5103364;28;20601;-74
2023/03/16 04:40:16;;;;;;;2.50;2.40;;;3.00;95.10;;;;;;5103573;28;20257;-74
2023/03/16 04:42:44;;;;;;;3.08;2.97;;;2.90;95.30;;;;;;5104113;28;20201;-73
2023/03/16 04:45:12;;;;;;;3.00;2.90;;;2.90;95.60;;;;;;5103717;28;20201;-76
2023/03/16 04:47:40;;;;;;;2.70;2.60;;;2.90;95.80;;;;;;5103202;28;20707;-74
2023/03/16 04:50:10;;;;;;;3.10;3.00;;;2.80;96.20;;;;;;5107445;28;20189;-74
2023/03/16 04:52:38;;;;;;;2.88;2.78;;;2.90;96.50;;;;;;5100727;28;20190;-74
2023/03/16 04:55:05;;;;;;;3.10;3.00;;;2.90;96.10;;;;;;5100208;28;20969;-73
2023/03/16 04:57:33;;;;;;;2.50;2.40;;;2.90;96.30;;;;;;5104561;28;20240;-74
2023/03/16 05:00:00;;;;;;;2.92;2.83;;;2.90;96.50;;;;;;5103120;28;20296;-73
2023/03/16 05:02:28;;;;;;;2.88;2.78;;;3.00;96.50;;;;;;5100394;28;20627;-74
2023/03/16 05:04:55;;;;;;;2.90;2.80;;;2.90;96.40;;;;;;5103672;28;21067;-74
2023/03/16 05:07:23;;;;;;;2.97;2.88;;;2.90;96.50;;;;;;5099530;28;20212;-74
2023/03/16 05:09:50;;;;;;;2.80;2.70;;;2.90;96.50;;;;;;5103787;28;20776;-75
2023/03/16 05:12:17;;;;;;;2.65;2.55;;;2.80;96.80;;;;;;5100075;28;20256;-74
2023/03/16 05:14:44;;;;;;;3.20;3.10;;;2.80;97.10;;;;;;5101038;28;20616;-74
2023/03/16 05:17:13;;;;;;;2.63;2.53;;;2.80;97.10;;;;;;5110242;27;20229;-74
2023/03/16 05:19:41;;;;;;;3.03;2.92;;;2.80;97.40;;;;;;5113352;28;20210;-74
2023/03/16 05:22:08;;;;;;;2.95;2.75;;;2.80;97.40;;;;;;5098970;28;20224;-74
2023/03/16 05:24:37;;;;;;;2.78;2.67;;;2.90;97.70;;;;;;5103051;28;20295;-75
2023/03/16 05:27:04;;;;;;;2.95;2.85;;;2.90;97.40;;;;;;5103248;28;20252;-74
2023/03/16 05:29:31;;;;;;;2.60;2.50;;;2.90;97.70;;;;;;5102931;28;20225;-73
2023/03/16 05:31:58;;;;;;;3.22;3.13;;;2.90;97.70;;;;;;5105195;28;20247;-74
2023/03/16 05:34:25;;;;;;;3.13;3.00;;;2.90;97.50;;;;;;5103183;28;20212;-74
2023/03/16 05:36:52;;;;;;;3.58;3.38;;;2.90;97.60;;;;;;5101762;28;20607;-74
2023/03/16 05:39:19;;;;;;;3.20;3.10;;;2.90;97.60;;;;;;5105298;28;20843;-74
2023/03/16 05:41:47;;;;;;;2.95;2.85;;;2.80;97.50;;;;;;5104568;28;20296;-73
2023/03/16 05:44:14;;;;;;;3.40;3.22;;;2.80;97.40;;;;;;5103607;28;20235;-74
2023/03/16 05:46:41;;;;;;;3.60;3.40;;;2.80;97.60;;;;;;5103620;28;20264;-74
2023/03/16 05:49:11;;;;;;;3.10;3.00;;;2.80;97.70;;;;;;5100391;28;20721;-74
2023/03/16 05:51:38;;;;;;;3.25;3.13;;;2.80;97.70;;;;;;5101504;28;20221;-74
2023/03/16 05:54:05;;;;;;;2.78;2.67;;;2.80;97.90;;;;;;5103770;28;20193;-74
2023/03/16 05:56:32;;;;;;;2.78;2.67;;;2.80;97.90;;;;;;5102984;28;20200;-74
2023/03/16 05:59:01;;;;;;;3.00;2.90;;;2.80;97.90;;;;;;5104409;28;20258;-74
2023/03/16 06:01:28;;;;;;;3.55;3.35;;;2.80;97.90;;;;;;5103050;28;20328;-74
2023/03/16 06:03:55;;;;;;;3.40;3.17;;;2.80;98.10;;;;;;5102613;28;20302;-74
2023/03/16 06:06:22;;;;;;;3.10;2.90;;;2.80;98.30;;;;;;5104580;28;20197;-73
2023/03/16 06:08:49;;;;;;;3.22;3.13;;;2.80;98.40;;;;;;5103231;28;20232;-74
2023/03/16 06:11:16;;;;;;;2.88;2.67;;;2.80;98.40;;;;;;5105235;28;20252;-74
2023/03/16 06:13:43;;;;;;;2.70;2.60;;;2.80;98.50;;;;;;5101952;28;20679;-73
2023/03/16 06:16:13;;;;;;;2.97;2.88;;;2.90;98.50;;;;;;5121120;28;20188;-75
2023/03/16 06:18:40;;;;;;;2.33;2.22;;;2.90;98.10;;;;;;5113374;28;20223;-74
2023/03/16 06:21:07;;;;;;;2.88;2.78;;;2.90;97.80;;;;;;5109766;28;20193;-74
2023/03/16 06:23:34;;;;;;;3.25;3.05;;;2.90;97.70;;;;;;5100260;28;20224;-74
2023/03/16 06:26:01;;;;;;;2.88;2.78;;;3.10;97.80;;;;;;5103275;28;20196;-74
2023/03/16 06:28:28;;;;;;;3.03;2.90;;;3.70;98.10;;;;;;5100766;28;20308;-74
2023/03/16 06:30:56;;;;;;;4.13;3.92;;;4.50;97.80;;;;;;5102316;28;20274;-73
2023/03/16 06:33:25;;;;;;;3.70;3.40;;;5.30;97.40;;;;;;5103594;28;20320;-74
2023/03/16 06:35:52;;;;;;;3.38;3.17;;;6.00;96.80;;;;;;5097772;28;20582;-74
2023/03/16 06:38:20;;;;;;;3.00;2.90;;;6.70;95.80;;;;;;5103101;27;20283;-74
2023/03/16 06:40:51;;;;;;;4.65;4.35;;;7.20;95.10;;;;;;5097438;28;20291;-75
2023/03/16 06:43:18;;;;;;;3.72;3.53;;;7.60;94.40;;;;;;5102138;28;20197;-74
2023/03/16 06:45:45;;;;;;;3.25;3.05;;;7.90;93.60;;;;;;5102601;28;20674;-74
2023/03/16 06:48:11;;;;;;;2.80;2.70;;;8.20;93.70;;;;;;5102053;28;20529;-75
2023/03/16 06:50:40;;;;;;;3.08;2.88;;;8.40;93.50;;;;;;5099396;28;20251;-74
2023/03/16 06:53:07;;;;;;;2.90;2.63;;;8.60;93.00;;;;;;5099787;28;20246;-74
2023/03/16 06:55:34;;;;;;;2.15;2.05;;;9.00;92.10;;;;;;5104887;28;20232;-75
2023/03/16 06:58:01;;;;;;;2.92;2.50;;;9.30;91.00;;;;;;5101739;28;20222;-75
2023/03/16 07:00:29;;;;;;;2.83;2.72;;;9.50;91.70;;;;;;5106815;28;20211;-74
2023/03/16 07:02:56;;;;;;;2.40;2.20;;;9.60;91.80;;;;;;5109069;28;20193;-75
2023/03/16 07:05:23;;;;;;;2.33;2.17;;;9.80;90.50;;;;;;5107159;28;20208;-76
2023/03/16 07:07:51;;;;;;;2.45;2.25;;;10.00;90.20;;;;;;5105416;28;20240;-74
2023/03/16 07:10:18;;;;;;;2.35;2.25;;;10.10;90.00;;;;;;5105410;28;20201;-76
2023/03/16 07:12:46;;;;;;;2.83;2.63;;;10.30;90.00;;;;;;5104492;28;20287;-75
2023/03/16 07:15:14;;;;;;;2.45;2.35;;;10.60;90.60;;;;;;5120784;28;20265;-76
2023/03/16 07:17:41;;;;;;;2.30;2.20;;;10.80;89.30;;;;;;5105107;28;20217;-75
2023/03/16 07:20:10;;;;;;;2.50;2.30;;;10.90;89.30;;;;;;5100092;28;20241;-75
2023/03/16 07:22:37;;;;;;;2.80;2.45;;;11.00;88.70;;;;;;5100929;28;20593;-75
2023/03/16 07:25:07;;;;;;;2.55;2.35;;;11.10;87.60;;;;;;5097461;28;20287;-75
2023/03/16 07:27:34;;;;;;;4.45;2.85;;;11.20;88.40;;;;;;5103793;28;20217;-75
2023/03/16 07:30:03;;;;;;;2.63;2.42;;;11.30;88.00;;;;;;5102214;28;20201;-75
2023/03/16 07:32:31;;;;;;;2.38;2.17;;;11.50;87.70;;;;;;5100858;27;20212;-75
2023/03/16 07:34:58;;;;;;;1.90;1.80;;;11.70;87.60;;;;;;5095901;28;20202;-76
2023/03/16 07:37:25;;;;;;;2.08;1.98;;;11.70;87.40;;;;;;5094161;28;20843;-72
2023/03/16 07:39:52;;;;;;;2.40;2.20;;;11.60;87.30;;;;;;5096910;28;20197;-76
2023/03/16 07:42:21;;;;;;;2.10;2.00;;;11.50;86.30;;;;;;5094385;28;20488;-74
2023/03/16 07:44:48;;;;;;;2.22;2.13;;;11.30;86.20;;;;;;5101020;28;20832;-73
2023/03/16 07:47:15;;;;;;;2.03;1.92;;;11.30;85.90;;;;;;5099796;27;20212;-74
2023/03/16 07:49:43;;;;;;;2.17;2.08;;;11.40;87.90;;;;;;5100637;28;20228;-75
2023/03/16 07:52:12;;;;;;;1.98;1.88;;;11.50;87.80;;;;;;5100065;28;20221;-74
2023/03/16 07:54:39;;;;;;;1.95;1.85;;;11.50;87.30;;;;;;5102630;28;20705;-74
2023/03/16 07:57:06;;;;;;;2.10;1.92;;;11.70;85.40;;;;;;5101913;28;20228;-73
2023/03/16 07:59:35;;;;;;;2.40;2.20;;;11.70;84.80;;;;;;5100277;28;20372;-74
2023/03/16 08:02:02;;;;;;;2.35;2.15;;;11.70;85.00;;;;;;5096080;28;20190;-74
2023/03/16 08:04:30;;;;;;;1.98;1.88;;;11.80;85.90;;;;;;5101177;28;20201;-73
2023/03/16 08:06:59;;;;;;;2.17;1.98;;;12.10;85.00;;;;;;5100596;28;20231;-74
2023/03/16 08:09:26;;;;;;;1.98;1.88;;;11.90;85.60;;;;;;5097906;28;20213;-73
2023/03/16 08:11:53;;;;;;;1.80;1.70;;;11.70;86.00;;;;;;5108107;28;20242;-76
2023/03/16 08:14:20;;;;;;;1.92;1.83;;;11.70;85.40;;;;;;5107819;28;20203;-73
2023/03/16 08:16:48;;;;;;;2.10;2.00;;;11.90;86.30;;;;;;5097483;28;20248;-74
2023/03/16 08:19:16;;;;;;;1.90;1.80;;;11.80;84.70;;;;;;5100321;28;20272;-75
2023/03/16 08:21:43;;;;;;;2.13;2.03;;;11.90;83.70;;;;;;5099428;28;20189;-74
2023/03/16 08:24:10;;;;;;;1.80;1.70;;;12.10;83.40;;;;;;5099353;28;20214;-73
2023/03/16 08:26:37;;;;;;;2.30;2.13;;;12.20;82.10;;;;;;5101873;28;20291;-74
2023/03/16 08:29:04;;;;;;;2.63;2.33;;;12.40;82.40;;;;;;5103523;28;20188;-72
2023/03/16 08:31:33;;;;;;;2.05;1.85;;;12.60;81.10;;;;;;5101588;28;21579;-73
2023/03/16 08:34:02;;;;;;;2.10;1.92;;;12.80;81.70;;;;;;5099357;28;20216;-74
2023/03/16 08:36:30;;;;;;;1.85;1.75;;;13.10;80.20;;;;;;5099764;28;20228;-74
2023/03/16 08:38:57;;;;;;;2.08;1.95;;;13.10;78.70;;;;;;5098491;28;20274;-73
2023/03/16 08:41:24;;;;;;;4.30;1.70;;;13.00;78.90;;;;;;5102991;28;20236;-73
2023/03/16 08:43:51;;;;;;;2.50;2.05;;;12.90;80.00;;;;;;5096561;28;20319;-74
2023/03/16 08:46:20;;;;;;;2.15;2.05;;;12.90;79.30;;;;;;5099716;28;20261;-74
2023/03/16 08:48:47;;;;;;;3.30;2.22;;;12.80;79.00;;;;;;5101916;28;20216;-73
2023/03/16 08:51:16;;;;;;;2.25;2.05;;;13.00;79.10;;;;;;5098002;28;20204;-75
2023/03/16 08:53:44;;;;;;;2.63;2.10;;;12.90;79.20;;;;;;5100363;28;20723;-74
2023/03/16 08:56:13;;;;;;;2.28;2.08;;;13.00;78.30;;;;;;5102100;28;20628;-74
2023/03/16 08:58:44;;;;;;;1.83;1.73;;;13.20;78.20;;;;;;5106578;28;20216;-74
2023/03/16 09:01:12;;;;;;;7.65;2.08;;;13.40;78.00;;;;;;5100383;28;20652;-74
2023/03/16 09:03:40;;;;;;;2.13;1.90;;;13.50;76.70;;;;;;5100290;28;20287;-74
2023/03/16 09:06:10;;;;;;;2.58;1.70;;;13.70;75.80;;;;;;5099895;28;20214;-74
2023/03/16 09:08:39;;;;;;;1.98;1.88;;;13.80;74.90;;;;;;5100908;28;20223;-73
2023/03/16 09:11:08;;;;;;;2.00;1.90;;;13.60;74.80;;;;;;5111182;27;21604;-74
2023/03/16 09:13:37;;;;;;;1.85;1.75;;;14.00;76.70;;;;;;5096966;28;20429;-73
2023/03/16 09:16:04;;;;;;;2.13;2.00;;;14.00;75.10;;;;;;5099393;28;20200;-73
2023/03/16 09:18:32;;;;;;;3.03;1.70;;;13.90;75.00;;;;;;5097334;27;20907;-72
2023/03/16 09:21:01;;;;;;;1.60;1.50;;;14.00;74.20;;;;;;5099024;28;20224;-74
2023/03/16 09:23:28;;;;;;;1.73;1.63;;;14.00;73.80;;;;;;5098257;28;20197;-74
2023/03/16 09:26:00;;;;;;;1.70;1.60;;;14.00;73.30;;;;;;5097460;28;20750;-74
2023/03/16 09:28:27;;;;;;;1.33;1.33;;;14.30;71.50;;;;;;5095519;28;20270;-74
2023/03/16 09:30:54;;;;;;;1.80;1.70;;;13.80;73.20;;;;;;5099177;28;20232;-74
2023/03/16 09:33:21;;;;;;;2.55;2.10;;;13.60;73.90;;;;;;5098481;28;20296;-74
2023/03/16 09:35:49;;;;;;;2.13;1.63;;;13.70;74.40;;;;;;5096448;28;20208;-75
2023/03/16 09:38:16;;;;;;;1.73;1.63;;;13.60;72.00;;;;;;5099195;28;20217;-75
2023/03/16 09:40:44;;;;;;;1.67;1.58;;;13.60;73.00;;;;;;5096414;28;20211;-73
2023/03/16 09:43:39;;;;;;;1.58;1.48;;;13.90;72.70;;;;;;5096811;28;20237;-74
2023/03/16 09:46:11;;;;;;;3.60;1.60;;;13.80;69.10;;;;;;5096294;28;20202;-74
2023/03/16 09:48:39;;;;;;;1.70;1.60;;;13.60;70.50;;;;;;5097174;28;20212;-74
2023/03/16 09:51:14;;;;;;;1.55;1.45;;;13.70;70.10;;;;;;5099581;28;22145;-73
2023/03/16 09:53:41;;;;;;;1.70;1.60;;;13.80;70.20;;;;;;5097746;28;20265;-75
2023/03/16 09:56:12;;;;;;;1.60;1.50;;;13.90;69.40;;;;;;5095822;27;20211;-72
2023/03/16 09:58:40;;;;;;;1.50;1.40;;;14.20;69.50;;;;;;5100653;27;20308;-73
2023/03/16 10:01:17;;;;;;;1.60;1.50;;;14.70;69.10;;;;;;5099969;28;20302;-74
2023/03/16 10:04:13;;;;;;;1.45;1.35;;;14.90;68.10;;;;;;5099272;28;20200;-75
2023/03/16 10:06:54;;;;;;;1.95;1.60;;;15.00;67.90;;;;;;5097602;28;20193;-74
2023/03/16 10:09:32;;;;;;;1.40;1.30;;;15.00;66.50;;;;;;5113045;28;20185;-74
2023/03/16 10:12:02;;;;;;;1.40;1.40;;;15.10;65.70;;;;;;5098501;28;20241;-75
2023/03/16 10:14:41;;;;;;;1.60;1.50;;;15.10;66.70;;;;;;5094767;28;20197;-74
2023/03/16 10:17:16;;;;;;;1.20;1.20;;;15.10;67.50;;;;;;5098462;28;20724;-73
2023/03/16 10:19:48;;;;;;;1.80;1.52;;;15.00;67.80;;;;;;5098470;28;20188;-73
2023/03/16 10:22:20;;;;;;;1.30;1.00;;;15.00;67.50;;;;;;5097675;28;20228;-74
2023/03/16 10:25:04;;;;;;;1.42;1.33;;;15.00;66.20;;;;;;5097106;28;20196;-72
2023/03/16 10:27:33;;;;;;;1.52;1.42;;;14.90;64.60;;;;;;5095844;28;20308;-73
2023/03/16 10:30:07;;;;;;;1.48;1.38;;;14.90;64.00;;;;;;5099220;28;20191;-74
2023/03/16 10:32:35;;;;;;;1.40;1.30;;;15.20;64.70;;;;;;5097976;28;20237;-74
2023/03/16 10:35:08;;;;;;;1.95;1.20;;;15.50;66.90;;;;;;5095000;28;20273;-73
2023/03/16 10:37:37;;;;;;;1.30;1.20;;;15.60;65.00;;;;;;5095368;28;20224;-76
2023/03/16 10:40:11;;;;;;;1.42;1.35;;;15.40;64.80;;;;;;5097025;28;20207;-74
2023/03/16 10:42:38;;;;;;;1.52;1.42;;;15.50;65.90;;;;;;5092927;28;20197;-74
2023/03/16 10:45:19;;;;;;;1.85;1.20;;;15.60;65.30;;;;;;5090899;28;20910;-74
2023/03/16 10:47:47;;;;;;;1.50;1.38;;;15.50;62.70;;;;;;5093416;28;20228;-73
2023/03/16 10:50:16;;;;;;;2.15;1.38;;;15.50;63.00;;;;;;5090926;28;20880;-72
2023/03/16 10:52:46;;;;;;;1.80;1.30;;;15.40;62.30;;;;;;5093810;28;20730;-74
2023/03/16 10:55:19;;;;;;;1.40;1.30;;;15.70;62.80;;;;;;5097060;28;20258;-74
2023/03/16 10:57:52;;;;;;;1.08;1.08;;;15.80;63.00;;;;;;5094283;28;20217;-73
2023/03/16 11:00:25;;;;;;;1.50;1.40;;;15.60;61.20;;;;;;5098519;28;20279;-74
2023/03/16 11:02:55;;;;;;;1.33;1.17;;;15.50;61.30;;;;;;5095740;28;20199;-74
2023/03/16 11:05:29;;;;;;;1.05;1.05;;;15.30;62.20;;;;;;5098117;28;20201;-73
2023/03/16 11:08:01;;;;;;;1.50;1.40;;;15.40;62.00;;;;;;5110276;28;20262;-73
2023/03/16 11:10:33;;;;;;;1.55;1.48;;;15.30;62.20;;;;;;5094369;28;20224;-74
2023/03/16 11:13:11;;;;;;;1.20;1.20;;;14.70;61.50;;;;;;5064871;28;21011;-75
2023/03/16 11:15:47;;;;;;;1.27;1.23;;;14.70;61.60;;;;;;5050284;28;20228;-73
2023/03/16 11:18:25;;;;;;;1.13;1.13;;;14.90;63.30;;;;;;5055270;28;20252;-74
2023/03/16 11:20:54;;;;;;;1.58;1.48;;;15.20;63.60;;;;;;5052515;28;20195;-73
2023/03/16 11:23:29;;;;;;;1.27;1.17;;;15.30;64.80;;;;;;5052418;28;20197;-74
2023/03/16 11:25:59;;;;;;;1.65;1.55;;;15.20;62.60;;;;;;5053511;28;20195;-75
2023/03/16 11:28:35;;;;;;;1.45;1.38;;;15.40;63.00;;;;;;5052013;28;20218;-74
2023/03/16 11:31:17;;;;;;;2.05;1.40;;;15.50;64.00;;;;;;5052933;28;20672;-74
2023/03/16 11:33:44;;;;;;;1.48;1.38;;;15.30;63.10;;;;;;5051552;28;20218;-74
2023/03/16 11:36:28;;;;;;;1.10;1.10;;;15.10;64.10;;;;;;5055009;28;20901;-74
2023/03/16 11:39:04;;;;;;;1.50;1.40;;;15.20;63.10;;;;;;5053335;28;20214;-74
2023/03/16 11:41:42;;;;;;;1.58;1.48;;;15.10;63.50;;;;;;5049848;28;20198;-73
2023/03/16 11:44:16;;;;;;;1.08;1.08;;;15.20;63.20;;;;;;5056807;28;20287;-74
2023/03/16 11:46:55;;;;;;;1.35;1.25;;;15.00;64.10;;;;;;5046014;28;20297;-75
2023/03/16 11:49:55;;;;;;;1.60;1.50;;;15.30;64.30;;;;;;5055233;28;20208;-74
2023/03/16 11:52:34;;;;;;;1.40;1.30;;;15.40;63.60;;;;;;5053237;28;20218;-75
2023/03/16 11:55:15;;;;;;;1.67;1.58;;;15.50;65.60;;;;;;5055690;28;20628;-73
2023/03/16 11:57:52;;;;;;;1.38;1.27;;;15.90;64.70;;;;;;5055005;28;20313;-77
2023/03/16 12:00:35;;;;;;;1.38;1.27;;;15.90;64.00;;;;;;5058196;28;20765;-74
2023/03/16 12:03:25;;;;;;;1.30;1.20;;;16.30;65.60;;;;;;5055534;28;20201;-74
2023/03/16 12:06:00;;;;;;;1.40;1.30;;;16.00;64.60;;;;;;5071352;28;20205;-75
2023/03/16 12:08:53;;;;;;;1.27;1.27;;;16.00;65.10;;;;;;5059298;28;20210;-74
2023/03/16 12:11:25;;;;;;;1.55;1.45;;;16.00;62.10;;;;;;5053822;28;20829;-75
2023/03/16 12:14:04;;;;;;;1.35;1.25;;;16.40;63.30;;;;;;5052431;28;20254;-75
2023/03/16 12:16:35;;;;;;;1.33;1.30;;;16.10;61.30;;;;;;5056907;28;20230;-74
2023/03/16 12:19:10;;;;;;;1.55;1.45;;;16.00;60.50;;;;;;5058596;28;20260;-74
2023/03/16 12:21:42;;;;;;;1.48;1.38;;;16.20;62.00;;;;;;5057276;28;20704;-74
2023/03/16 12:24:15;;;;;;;1.40;1.30;;;16.30;63.30;;;;;;5055669;28;20262;-74
2023/03/16 12:26:43;;;;;;;1.60;1.50;;;16.00;61.90;;;;;;5052914;28;20210;-74
2023/03/16 12:29:21;;;;;;;1.30;1.30;;;15.90;61.70;;;;;;5055168;28;20422;-74
2023/03/16 12:31:54;;;;;;;1.50;1.40;;;15.90;61.30;;;;;;5052710;28;20222;-75
2023/03/16 12:34:31;;;;;;;1.25;1.20;;;15.60;60.10;;;;;;5053372;28;20214;-74
2023/03/16 12:37:22;;;;;;;1.92;1.40;;;15.50;62.30;;;;;;5052409;28;20301;-75
2023/03/16 12:40:09;;;;;;;1.38;1.30;;;15.30;60.40;;;;;;5056960;28;20230;-73
2023/03/16 12:42:52;;;;;;;1.60;1.50;;;15.30;62.70;;;;;;5051472;28;20210;-73
2023/03/16 12:45:30;;;;;;;1.63;1.52;;;15.50;63.20;;;;;;5053373;28;20207;-71
2023/03/16 12:48:04;;;;;;;1.45;1.38;;;15.20;60.80;;;;;;5045099;28;20254;-75
2023/03/16 12:50:33;;;;;;;1.50;1.40;;;15.30;61.50;;;;;;5052287;28;20201;-72
2023/03/16 12:53:00;;;;;;;1.38;1.30;;;15.30;60.80;;;;;;5048946;28;20214;-75
2023/03/16 12:55:43;;;;;;;1.25;1.25;;;15.60;61.70;;;;;;5049380;28;20728;-75
2023/03/16 12:58:11;;;;;;;1.48;1.38;;;15.70;61.60;;;;;;5050702;28;20318;-74
2023/03/16 13:00:41;;;;;;;1.55;1.45;;;15.70;59.80;;;;;;5047525;28;20282;-74
2023/03/16 13:03:15;;;;;;;1.58;1.48;;;15.50;59.60;;;;;;5068016;28;20248;-76
2023/03/16 13:05:50;;;;;;;1.73;1.63;;;15.30;59.20;;;;;;5047374;28;20195;-74
2023/03/16 13:08:20;;;;;;;1.40;1.30;;;15.20;60.20;;;;;;5051546;28;20286;-76